createdAt,value
2023-05-19T00:01:19.499Z,95184.63
2023-05-19T00:03:52.760Z,95181.94
2023-05-19T00:06:22.934Z,95184.28
2023-05-19T00:08:49.845Z,95181.34
2023-05-19T00:11:18.146Z,95179.78
2023-05-19T00:13:48.522Z,95178.97
2023-05-19T00:16:15.488Z,95181.13
2023-05-19T00:18:43.647Z,95175.03
2023-05-19T00:21:10.528Z,95177.44
2023-05-19T00:23:37.211Z,95176.16
2023-05-19T00:26:03.825Z,95180.41
2023-05-19T00:28:31.752Z,95180.66
2023-05-19T00:30:58.534Z,95175.03
2023-05-19T00:33:25.173Z,95171.84
2023-05-19T00:35:51.809Z,95178.16
2023-05-19T00:38:19.331Z,95180.81
2023-05-19T00:40:45.952Z,95169.69
2023-05-19T00:43:12.575Z,95176.03
2023-05-19T00:45:41.413Z,95173.13
2023-05-19T00:48:08.119Z,95171.28
2023-05-19T00:50:35.103Z,95178.66
2023-05-19T00:53:01.864Z,95176.47
2023-05-19T00:55:29.515Z,95168.75
2023-05-19T00:57:56.700Z,95165.56
2023-05-19T01:00:23.739Z,95168.75
2023-05-19T01:02:52.296Z,95165.84
2023-05-19T01:05:19.077Z,95157.69
2023-05-19T01:07:47.275Z,95162.69
2023-05-19T01:10:13.865Z,95157.41
2023-05-19T01:12:40.888Z,95160.88
2023-05-19T01:15:07.976Z,95168.81
2023-05-19T01:17:39.228Z,95165.09
2023-05-19T01:20:11.152Z,95164.88
2023-05-19T01:22:54.925Z,95164.88
2023-05-19T01:25:42.679Z,95154.25
2023-05-19T01:28:24.187Z,95158.97
2023-05-19T01:30:53.445Z,95156.78
2023-05-19T01:33:21.143Z,95163.00
2023-05-19T01:35:48.924Z,95158.66
2023-05-19T01:38:17.473Z,95163.63
2023-05-19T01:40:45.036Z,95157.56
2023-05-19T01:43:14.004Z,95159.38
2023-05-19T01:45:41.957Z,95160.16
2023-05-19T01:48:12.130Z,95157.97
2023-05-19T01:50:39.382Z,95155.31
2023-05-19T01:53:06.134Z,95159.03
2023-05-19T01:55:34.538Z,95151.91
2023-05-19T01:58:06.578Z,95155.88
2023-05-19T02:00:42.701Z,95153.25
2023-05-19T02:03:17.564Z,95151.41
2023-05-19T02:05:51.621Z,95150.59
2023-05-19T02:08:20.833Z,95152.75
2023-05-19T02:10:50.601Z,95149.06
2023-05-19T02:13:20.416Z,95149.31
2023-05-19T02:15:48.822Z,95148.50
2023-05-19T02:18:19.240Z,95151.72
2023-05-19T02:20:50.708Z,95157.00
2023-05-19T02:23:17.292Z,95147.00
2023-05-19T02:25:43.874Z,95150.16
2023-05-19T02:28:10.561Z,95140.66
2023-05-19T02:30:37.248Z,95141.19
2023-05-19T02:33:06.567Z,95141.72
2023-05-19T02:35:34.683Z,95140.81
2023-05-19T02:38:01.228Z,95136.31
2023-05-19T02:40:27.998Z,95133.91
2023-05-19T02:42:54.840Z,95139.97
2023-05-19T02:45:21.420Z,95135.50
2023-05-19T02:47:48.171Z,95140.78
2023-05-19T02:50:14.877Z,95139.44
2023-05-19T02:52:42.757Z,95138.09
2023-05-19T02:55:09.699Z,95137.28
2023-05-19T02:57:36.405Z,95135.19
2023-05-19T03:00:03.477Z,95131.53
2023-05-19T03:02:30.220Z,95134.63
2023-05-19T03:04:56.848Z,95132.00
2023-05-19T03:07:25.378Z,95130.97
2023-05-19T03:09:53.562Z,95125.19
2023-05-19T03:12:20.162Z,95138.94
2023-05-19T03:14:47.496Z,95133.41
2023-05-19T03:17:14.126Z,95127.09
2023-05-19T03:19:41.681Z,95126.53
2023-05-19T03:22:08.297Z,95131.53
2023-05-19T03:24:35.160Z,95130.75
2023-05-19T03:27:05.973Z,95126.53
2023-05-19T03:29:33.140Z,95126.53
2023-05-19T03:32:00.069Z,95125.47
2023-05-19T03:34:26.787Z,95126.53
2023-05-19T03:36:53.554Z,95124.44
2023-05-19T03:39:21.610Z,95122.59
2023-05-19T03:41:48.909Z,95119.94
2023-05-19T03:44:17.264Z,95121.81
2023-05-19T03:46:44.463Z,95126.81
2023-05-19T03:49:29.427Z,95122.34
2023-05-19T03:52:15.702Z,95123.16
2023-05-19T03:54:53.002Z,95122.09
2023-05-19T03:57:19.913Z,95129.78
2023-05-19T03:59:48.969Z,95124.22
2023-05-19T04:02:16.714Z,95124.78
2023-05-19T04:04:43.681Z,95123.22
2023-05-19T04:07:11.981Z,95125.03
2023-05-19T04:09:39.023Z,95133.72
2023-05-19T04:12:06.273Z,95125.41
2023-05-19T04:14:32.970Z,95122.47
2023-05-19T04:17:01.777Z,95122.97
2023-05-19T04:19:28.362Z,95114.50
2023-05-19T04:21:55.375Z,95117.13
2023-05-19T04:24:21.918Z,95117.44
2023-05-19T04:26:48.896Z,95117.44
2023-05-19T04:29:18.498Z,95108.16
2023-05-19T04:31:45.333Z,95114.50
2023-05-19T04:34:13.394Z,95107.63
2023-05-19T04:36:40.291Z,95120.56
2023-05-19T04:39:09.541Z,95116.63
2023-05-19T04:41:42.023Z,95117.44
2023-05-19T04:44:09.491Z,95115.28
2023-05-19T04:46:37.080Z,95120.50
2023-05-19T04:49:04.787Z,95120.22
2023-05-19T04:51:32.815Z,95116.50
2023-05-19T04:54:01.603Z,95116.03
2023-05-19T04:56:28.874Z,95117.06
2023-05-19T04:58:56.033Z,95131.56
2023-05-19T05:01:26.383Z,95121.22
2023-05-19T05:03:55.635Z,95130.66
2023-05-19T05:06:22.778Z,95120.16
2023-05-19T05:08:51.305Z,95109.66
2023-05-19T05:11:18.360Z,95116.50
2023-05-19T05:13:46.659Z,95114.94
2023-05-19T05:16:14.530Z,95118.56
2023-05-19T05:18:44.359Z,95115.44
2023-05-19T05:21:11.930Z,95116.50
2023-05-19T05:23:38.682Z,95117.56
2023-05-19T05:26:10.501Z,95111.78
2023-05-19T05:28:37.203Z,95108.41
2023-05-19T05:31:03.828Z,95102.94
2023-05-19T05:33:31.128Z,95106.69
2023-05-19T05:35:57.719Z,95109.81
2023-05-19T05:38:25.273Z,95105.78
2023-05-19T05:40:51.934Z,95110.22
2023-05-19T05:43:20.941Z,95111.22
2023-05-19T05:45:53.353Z,95111.78
2023-05-19T05:48:20.554Z,95107.34
2023-05-19T05:50:48.544Z,95105.84
2023-05-19T05:53:19.675Z,95113.50
2023-05-19T05:55:49.363Z,95113.25
2023-05-19T05:58:17.016Z,95114.66
2023-05-19T06:00:45.406Z,95106.06
2023-05-19T06:03:12.220Z,95109.59
2023-05-19T06:05:39.239Z,95113.13
2023-05-19T06:08:06.333Z,95113.47
2023-05-19T06:10:33.419Z,95105.03
2023-05-19T06:13:00.380Z,95111.72
2023-05-19T06:15:27.255Z,95103.59
2023-05-19T06:18:18.526Z,95106.06
2023-05-19T06:20:47.799Z,95102.97
2023-05-19T06:23:14.380Z,95104.25
2023-05-19T06:25:41.571Z,95102.97
2023-05-19T06:28:08.225Z,95111.16
2023-05-19T06:30:34.999Z,95108.81
2023-05-19T06:33:15.584Z,95112.28
2023-05-19T06:35:44.024Z,95113.16
2023-05-19T06:38:10.878Z,95119.00
2023-05-19T06:40:37.569Z,95108.69
2023-05-19T06:43:05.187Z,95117.44
2023-05-19T06:45:52.477Z,95117.44
2023-05-19T06:48:19.203Z,95114.56
2023-05-19T06:50:47.181Z,95117.25
2023-05-19T06:53:14.025Z,95115.19
2023-05-19T06:55:54.337Z,95119.97
2023-05-19T06:58:27.010Z,95121.03
2023-05-19T07:00:53.700Z,95119.22
2023-05-19T07:03:21.304Z,95121.63
2023-05-19T07:05:49.869Z,95124.28
2023-05-19T07:08:16.871Z,95118.97
2023-05-19T07:10:43.842Z,95123.25
2023-05-19T07:13:15.539Z,95114.47
2023-05-19T07:15:42.307Z,95116.59
2023-05-19T07:18:09.148Z,95119.28
2023-05-19T07:20:35.904Z,95113.78
2023-05-19T07:23:05.248Z,95115.94
2023-05-19T07:25:32.741Z,95111.16
2023-05-19T07:27:59.650Z,95108.25
2023-05-19T07:30:26.817Z,95105.09
2023-05-19T07:32:53.410Z,95111.72
2023-05-19T07:35:20.034Z,95111.19
2023-05-19T07:37:46.784Z,95118.06
2023-05-19T07:40:15.082Z,95109.63
2023-05-19T07:42:42.035Z,95105.66
2023-05-19T07:45:09.022Z,95099.56
2023-05-19T07:47:35.682Z,95097.69
2023-05-19T07:50:02.621Z,95099.03
2023-05-19T07:52:29.409Z,95102.22
2023-05-19T07:54:56.043Z,95105.44
2023-05-19T07:57:24.144Z,95104.13
2023-05-19T07:59:50.712Z,95101.78
2023-05-19T08:02:17.636Z,95101.53
2023-05-19T08:04:44.293Z,95106.81
2023-05-19T08:07:11.028Z,95099.88
2023-05-19T08:09:37.576Z,95100.41
2023-05-19T08:12:05.089Z,95098.56
2023-05-19T08:14:34.999Z,95091.94
2023-05-19T08:17:01.734Z,95093.59
2023-05-19T08:19:28.404Z,95090.69
2023-05-19T08:21:55.885Z,95088.84
2023-05-19T08:24:22.531Z,95094.41
2023-05-19T08:51:16.248Z,95081.19
2023-05-19T08:59:08.531Z,95065.72
2023-05-19T09:14:01.171Z,95073.16
2023-05-19T09:16:33.359Z,95070.19
2023-05-19T09:19:02.194Z,95065.66
2023-05-19T09:24:24.492Z,95069.38
2023-05-19T09:27:03.940Z,95061.44
2023-05-19T09:29:31.766Z,95067.75
2023-05-19T09:43:14.625Z,95062.41
2023-05-19T09:54:23.810Z,95063.53
2023-05-19T10:05:14.594Z,95049.22
2023-05-19T10:07:41.631Z,95044.50
2023-05-19T10:16:00.888Z,95028.97
2023-05-19T10:18:30.272Z,95028.22
2023-05-19T10:20:58.817Z,95041.25
2023-05-19T10:23:26.420Z,95027.50
2023-05-19T10:25:56.599Z,95024.25
2023-05-19T10:28:27.893Z,95018.13
2023-05-19T10:30:56.662Z,95019.84
2023-05-19T10:33:33.526Z,95015.59
2023-05-19T10:36:09.081Z,95016.66
2023-05-19T10:38:45.400Z,95018.84
2023-05-19T10:41:13.980Z,95018.56
2023-05-19T10:43:52.651Z,95021.00
2023-05-19T10:46:24.753Z,95019.50
2023-05-19T10:51:34.697Z,95021.09
2023-05-19T10:54:03.212Z,95018.31
2023-05-19T10:56:31.448Z,95024.25
2023-05-19T10:58:58.454Z,95021.13
2023-05-19T11:01:31.163Z,95016.38
2023-05-19T11:04:04.539Z,95016.63
2023-05-19T11:06:32.726Z,95006.50
2023-05-19T11:09:01.040Z,95004.84
2023-05-19T11:11:43.419Z,95011.81
2023-05-19T11:16:53.570Z,95021.25
2023-05-19T11:19:26.299Z,95012.25
2023-05-19T11:21:55.609Z,95016.81
2023-05-19T11:24:38.437Z,95020.03
2023-05-19T11:27:17.666Z,95020.81
2023-05-19T11:29:44.388Z,95027.50
2023-05-19T11:32:11.894Z,95023.84
2023-05-19T11:34:44.977Z,95026.50
2023-05-19T11:37:12.161Z,95030.47
2023-05-19T11:39:41.647Z,95033.38
2023-05-19T11:42:09.857Z,95033.44
2023-05-19T11:44:36.787Z,95035.31
2023-05-19T11:47:05.136Z,95030.78
2023-05-19T11:49:32.577Z,95031.50
2023-05-19T11:52:05.119Z,95029.69
2023-05-19T11:57:14.348Z,95026.63
2023-05-19T11:59:49.382Z,95030.50
2023-05-19T12:02:17.579Z,95025.88
2023-05-19T12:04:44.605Z,95025.03
2023-05-19T12:07:30.020Z,95014.09
2023-05-19T12:10:01.927Z,95014.28
2023-05-19T12:12:30.507Z,95011.06
2023-05-19T12:14:57.251Z,95008.59
2023-05-19T12:20:06.805Z,95010.94
2023-05-19T12:22:34.274Z,95013.31
2023-05-19T12:25:04.861Z,95013.50
2023-05-19T12:27:35.781Z,95004.94
2023-05-19T12:30:03.349Z,95013.34
2023-05-19T12:32:30.158Z,95013.06
2023-05-19T12:34:57.188Z,95012.56
2023-05-19T12:37:26.236Z,95004.00
2023-05-19T12:39:55.574Z,95006.88
2023-05-19T12:42:31.502Z,95006.56
2023-05-19T12:45:00.680Z,95007.69
2023-05-19T12:47:33.212Z,95004.44
2023-05-19T12:50:04.124Z,95006.31
2023-05-19T12:52:35.392Z,95007.13
2023-05-19T12:55:05.172Z,95010.34
2023-05-19T12:57:35.457Z,95010.13
2023-05-19T13:00:06.960Z,95004.06
2023-05-19T13:02:34.442Z,95008.38
2023-05-19T13:05:01.336Z,95001.53
2023-05-19T13:07:28.444Z,95009.06
2023-05-19T13:09:55.414Z,95010.94
2023-05-19T13:12:23.456Z,95013.09
2023-05-19T13:14:53.506Z,95005.72
2023-05-19T13:17:23.670Z,95016.13
2023-05-19T13:19:50.487Z,95020.44
2023-05-19T13:22:17.856Z,95011.72
2023-05-19T13:24:44.691Z,95014.72
2023-05-19T13:27:11.366Z,95013.41
2023-05-19T13:29:38.093Z,95016.91
2023-05-19T13:32:06.569Z,95012.97
2023-05-19T13:34:33.570Z,95011.09
2023-05-19T13:37:00.990Z,95013.44
2023-05-19T13:39:27.700Z,95011.91
2023-05-19T13:41:55.091Z,95007.91
2023-05-19T13:44:21.712Z,95005.56
2023-05-19T13:46:49.850Z,94996.78
2023-05-19T13:49:20.335Z,95004.25
2023-05-19T13:51:47.182Z,95004.03
2023-05-19T13:54:13.960Z,95007.53
2023-05-19T13:56:40.621Z,95010.19
2023-05-19T13:59:08.112Z,95008.03
2023-05-19T14:01:34.809Z,95010.94
2023-05-19T14:04:01.745Z,95013.66
2023-05-19T14:06:30.469Z,95011.03
2023-05-19T14:08:57.116Z,95011.56
2023-05-19T14:11:23.733Z,95003.72
2023-05-19T14:13:52.703Z,95001.31
2023-05-19T14:16:22.264Z,95003.72
2023-05-19T14:18:49.072Z,95003.97
2023-05-19T14:21:15.935Z,95000.25
2023-05-19T14:23:44.906Z,95002.91
2023-05-19T14:26:11.638Z,94999.44
2023-05-19T14:28:38.329Z,95009.31
2023-05-19T14:31:05.986Z,95008.00
2023-05-19T14:33:35.651Z,95015.44
2023-05-19T14:36:10.615Z,95016.25
2023-05-19T14:38:37.210Z,95008.25
2023-05-19T14:41:13.331Z,95011.75
2023-05-19T14:43:42.505Z,95014.13
2023-05-19T14:46:09.319Z,95015.75
2023-05-19T14:48:36.698Z,95011.47
2023-05-19T14:51:03.423Z,95015.75
2023-05-19T14:53:30.896Z,95013.09
2023-05-19T14:55:57.487Z,95019.22
2023-05-19T14:58:28.191Z,95015.00
2023-05-19T15:00:57.356Z,95014.19
2023-05-19T15:03:24.088Z,95015.50
2023-05-19T15:05:50.751Z,95012.28
2023-05-19T15:08:17.621Z,95005.59
2023-05-19T15:10:48.127Z,95012.28
2023-05-19T15:13:14.818Z,95013.66
2023-05-19T15:15:43.494Z,95017.41
2023-05-19T15:18:10.158Z,95015.84
2023-05-19T15:20:37.069Z,95010.56
2023-05-19T15:23:04.433Z,95009.78
2023-05-19T15:25:31.124Z,95002.81
2023-05-19T15:27:57.664Z,95009.19
2023-05-19T15:30:24.337Z,95009.50
2023-05-19T15:32:52.317Z,95004.97
2023-05-19T15:35:19.091Z,95000.47
2023-05-19T15:37:45.779Z,95000.47
2023-05-19T15:40:12.759Z,95000.72
2023-05-19T15:42:39.356Z,95004.72
2023-05-19T15:45:08.025Z,94997.88
2023-05-19T15:47:34.787Z,94997.38
2023-05-19T15:50:02.873Z,95001.91
2023-05-19T15:52:29.456Z,94997.91
2023-05-19T15:54:58.931Z,94986.19
2023-05-19T15:57:25.880Z,94993.06
2023-05-19T15:59:52.450Z,94986.91
2023-05-19T16:02:19.592Z,94993.81
2023-05-19T16:04:46.281Z,94990.09
2023-05-19T16:07:14.432Z,94988.69
2023-05-19T16:09:41.084Z,94987.34
2023-05-19T16:12:07.753Z,94987.09
2023-05-19T16:14:36.693Z,94983.13
2023-05-19T16:17:03.488Z,94987.63
2023-05-19T16:19:30.081Z,94979.13
2023-05-19T16:21:56.791Z,94980.75
2023-05-19T16:24:25.123Z,94972.00
2023-05-19T16:26:53.575Z,94974.91
2023-05-19T16:29:20.385Z,94974.69
2023-05-19T16:31:47.034Z,94970.16
2023-05-19T16:34:13.610Z,94973.38
2023-05-19T16:36:40.153Z,94968.09
2023-05-19T16:39:06.744Z,94976.84
2023-05-19T16:41:34.697Z,94969.66
2023-05-19T16:44:02.284Z,94968.88
2023-05-19T16:46:30.591Z,94969.44
2023-05-19T16:48:57.969Z,94976.09
2023-05-19T16:51:24.628Z,94972.69
2023-05-19T16:53:51.210Z,94967.13
2023-05-19T16:56:17.751Z,94970.06
2023-05-19T16:58:46.009Z,94967.13
2023-05-19T17:01:12.652Z,94961.25
2023-05-19T17:03:39.362Z,94966.28
2023-05-19T17:06:06.276Z,94961.78
2023-05-19T17:08:32.850Z,94960.47
2023-05-19T17:10:59.445Z,94958.06
2023-05-19T17:13:28.231Z,94956.50
2023-05-19T17:15:56.381Z,94970.59
2023-05-19T17:18:23.063Z,94963.41
2023-05-19T17:20:49.643Z,94965.25
2023-05-19T17:23:16.297Z,94962.88
2023-05-19T17:25:43.029Z,94964.75
2023-05-19T17:28:09.688Z,94967.66
2023-05-19T17:30:36.582Z,94965.00
2023-05-19T17:33:04.630Z,94957.31
2023-05-19T17:35:31.678Z,94958.13
2023-05-19T17:37:58.271Z,94961.03
2023-05-19T17:40:24.850Z,94964.78
2023-05-19T17:42:51.466Z,94956.28
2023-05-19T17:45:18.188Z,94953.34
2023-05-19T17:47:44.858Z,94948.03
2023-05-19T17:50:12.885Z,94950.13
2023-05-19T17:52:40.577Z,94953.59
2023-05-19T17:55:07.987Z,94964.22
2023-05-19T17:57:35.131Z,94958.13
2023-05-19T18:00:03.199Z,94955.97
2023-05-19T18:02:31.755Z,94953.03
2023-05-19T18:04:58.844Z,94957.00
2023-05-19T18:07:27.878Z,94967.63
2023-05-19T18:09:55.594Z,94959.66
2023-05-19T18:12:22.796Z,94963.91
2023-05-19T18:14:49.374Z,94967.38
2023-05-19T18:17:15.985Z,94958.88
2023-05-19T18:19:42.740Z,94965.78
2023-05-19T18:22:12.836Z,94969.50
2023-05-19T18:24:41.426Z,94959.66
2023-05-19T18:27:08.051Z,94966.59
2023-05-19T18:29:34.990Z,94960.47
2023-05-19T18:32:01.802Z,94961.53
2023-05-19T18:34:30.091Z,94957.00
2023-05-19T18:36:56.731Z,94955.94
2023-05-19T18:39:23.516Z,94947.19
2023-05-19T18:41:51.507Z,94952.75
2023-05-19T18:44:18.049Z,94951.97
2023-05-19T18:46:44.651Z,94946.91
2023-05-19T18:49:12.071Z,94954.38
2023-05-19T18:51:38.846Z,94954.94
2023-05-19T18:54:05.626Z,94952.56
2023-05-19T18:56:33.327Z,94951.25
2023-05-19T18:59:01.249Z,94949.66
2023-05-19T19:01:28.049Z,94951.00
2023-05-19T19:03:54.777Z,94952.34
2023-05-19T19:06:22.997Z,94957.69
2023-05-19T19:08:49.609Z,94956.91
2023-05-19T19:11:16.221Z,94955.91
2023-05-19T19:13:43.680Z,94951.13
2023-05-19T19:16:11.603Z,94960.72
2023-05-19T19:18:38.324Z,94948.25
2023-05-19T19:21:05.870Z,94958.88
2023-05-19T19:23:32.849Z,94957.25
2023-05-19T19:25:59.516Z,94956.72
2023-05-19T19:28:26.481Z,94966.25
2023-05-19T19:30:53.410Z,94960.94
2023-05-19T19:33:21.651Z,94966.00
2023-05-19T19:35:48.261Z,94964.94
2023-05-19T19:38:14.896Z,94958.06
2023-05-19T19:40:41.471Z,94952.56
2023-05-19T19:43:08.080Z,94955.75
2023-05-19T19:45:36.282Z,94957.09
2023-05-19T19:48:03.049Z,94953.94
2023-05-19T19:50:31.455Z,94952.38
2023-05-19T19:52:58.094Z,94953.19
2023-05-19T19:55:24.654Z,94956.91
2023-05-19T19:57:51.400Z,94957.19
2023-05-19T20:00:18.560Z,94957.44
2023-05-19T20:03:02.690Z,94954.00
2023-05-19T20:05:32.233Z,94956.38
2023-05-19T20:07:58.984Z,94949.22
2023-05-19T20:10:25.779Z,94943.66
2023-05-19T20:12:52.510Z,94947.09
2023-05-19T20:15:19.401Z,94944.44
2023-05-19T20:17:46.351Z,94939.13
2023-05-19T20:20:13.284Z,94943.66
2023-05-19T20:22:41.289Z,94943.66
2023-05-19T20:25:08.325Z,94943.66
2023-05-19T20:27:34.908Z,94945.47
2023-05-19T20:30:01.550Z,94936.72
2023-05-19T20:32:28.226Z,94935.16
2023-05-19T20:34:54.838Z,94938.34
2023-05-19T20:37:22.321Z,94939.13
2023-05-19T20:39:50.486Z,94933.81
2023-05-19T20:42:17.067Z,94926.38
2023-05-19T20:44:43.983Z,94930.88
2023-05-19T20:47:10.732Z,94925.84
2023-05-19T20:49:37.695Z,94927.16
2023-05-19T20:52:04.588Z,94926.59
2023-05-19T20:54:31.170Z,94924.47
2023-05-19T20:56:59.237Z,94922.31
2023-05-19T20:59:26.148Z,94928.97
2023-05-19T21:01:52.695Z,94931.34
2023-05-19T21:04:19.417Z,94929.25
2023-05-19T21:06:46.235Z,94932.47
2023-05-19T21:09:13.002Z,94931.63
2023-05-19T21:11:39.591Z,94932.97
2023-05-19T21:14:08.146Z,94931.69
2023-05-19T21:16:38.686Z,94931.72
2023-05-19T21:19:06.529Z,94929.31
2023-05-19T21:21:33.728Z,94930.41
2023-05-19T21:24:00.570Z,94925.91
2023-05-19T21:26:27.299Z,94917.72
2023-05-19T21:28:53.916Z,94920.38
2023-05-19T21:31:21.998Z,94920.88
2023-05-19T21:33:48.621Z,94921.41
2023-05-19T21:36:15.734Z,94926.69
2023-05-19T21:38:42.490Z,94916.63
2023-05-19T21:41:09.121Z,94912.41
2023-05-19T21:43:35.759Z,94910.78
2023-05-19T21:46:02.334Z,94908.69
2023-05-19T21:48:30.921Z,94900.16
2023-05-19T21:50:57.767Z,94902.56
2023-05-19T21:53:24.600Z,94901.22
2023-05-19T21:55:51.172Z,94903.88
2023-05-19T21:58:18.375Z,94904.38
2023-05-19T22:00:48.192Z,94902.00
2023-05-19T22:03:14.904Z,94904.94
2023-05-19T22:05:42.957Z,94897.50
2023-05-19T22:08:09.772Z,94892.50
2023-05-19T22:10:37.394Z,94891.97
2023-05-19T22:13:03.999Z,94888.53
2023-05-19T22:15:30.638Z,94897.81
2023-05-19T22:17:57.491Z,94894.84
2023-05-19T22:20:24.090Z,94892.72
2023-05-19T22:22:52.229Z,94891.41
2023-05-19T22:25:18.956Z,94894.06
2023-05-19T22:27:45.611Z,94896.72
2023-05-19T22:30:12.393Z,94890.06
2023-05-19T22:32:38.987Z,94886.09
2023-05-19T22:35:06.611Z,94881.06
2023-05-19T22:37:33.626Z,94878.16
2023-05-19T22:40:01.573Z,94874.41
2023-05-19T22:42:28.495Z,94870.44
2023-05-19T22:44:55.064Z,94871.25
2023-05-19T22:47:22.078Z,94869.38
2023-05-19T22:49:49.974Z,94866.72
2023-05-19T22:52:16.696Z,94864.84
2023-05-19T22:54:43.266Z,94866.19
2023-05-19T22:57:11.669Z,94866.19
2023-05-19T22:59:38.353Z,94863.53
2023-05-19T23:02:05.095Z,94861.66
2023-05-19T23:04:31.780Z,94864.56
2023-05-19T23:06:58.463Z,94866.16
2023-05-19T23:09:27.274Z,94871.25
2023-05-19T23:11:54.323Z,94869.94
2023-05-19T23:14:22.288Z,94865.41
2023-05-19T23:16:49.041Z,94859.56
2023-05-19T23:19:16.965Z,94856.91
2023-05-19T23:21:44.646Z,94854.53
2023-05-19T23:24:11.397Z,94854.03
2023-05-19T23:26:37.965Z,94843.13
2023-05-19T23:29:04.488Z,94845.78
2023-05-19T23:31:32.444Z,94843.44
2023-05-19T23:34:01.955Z,94842.59
2023-05-19T23:36:28.606Z,94845.03
2023-05-19T23:38:55.210Z,94841.34
2023-05-19T23:41:21.737Z,94833.09
2023-05-19T23:43:48.312Z,94827.28
2023-05-19T23:46:14.953Z,94836.31
2023-05-19T23:48:43.204Z,94822.81
2023-05-19T23:51:10.073Z,94830.00
2023-05-19T23:53:36.766Z,94829.47
2023-05-19T23:56:03.601Z,94827.59
2023-05-19T23:58:30.298Z,94827.84
